sensor_id;sensor_type;location;lat;lon;timestamp;pressure;altitude;pressure_sealevel;temperature;humidity
62103;BME280;48077;48.104;11.702;2022-11-15T00:00:02;95466.31;;;1.00;100.00
62103;BME280;48077;48.104;11.702;2022-11-15T00:02:26;95465.47;;;1.00;100.00
62103;BME280;48077;48.104;11.702;2022-11-15T00:04:49;95462.50;;;1.03;100.00
62103;BME280;48077;48.104;11.702;2022-11-15T00:07:13;95457.25;;;1.03;100.00
62103;BME280;48077;48.104;11.702;2022-11-15T00:09:36;95459.50;;;1.06;100.00
62103;BME280;48077;48.104;11.702;2022-11-15T00:12:00;95458.38;;;1.09;100.00
62103;BME280;48077;48.104;11.702;2022-11-15T00:14:23;95449.00;;;1.06;100.00
62103;BME280;48077;48.104;11.702;2022-11-15T00:16:46;95445.03;;;1.10;100.00
62103;BME280;48077;48.104;11.702;2022-11-15T00:19:10;95440.69;;;1.03;100.00
62103;BME280;48077;48.104;11.702;2022-11-15T00:21:33;95444.88;;;1.12;100.00
62103;BME280;48077;48.104;11.702;2022-11-15T00:23:56;95445.03;;;1.10;100.00
62103;BME280;48077;48.104;11.702;2022-11-15T00:26:21;95440.31;;;1.06;100.00
62103;BME280;48077;48.104;11.702;2022-11-15T00:28:44;95440.47;;;1.04;100.00
62103;BME280;48077;48.104;11.702;2022-11-15T00:31:12;95445.94;;;1.03;100.00
62103;BME280;48077;48.104;11.702;2022-11-15T00:33:35;95435.59;;;1.01;100.00
62103;BME280;48077;48.104;11.702;2022-11-15T00:36:03;95437.41;;;1.00;100.00
62103;BME280;48077;48.104;11.702;2022-11-15T00:38:33;95429.59;;;0.92;100.00
62103;BME280;48077;48.104;11.702;2022-11-15T00:40:57;95435.81;;;0.91;100.00
62103;BME280;48077;48.104;11.702;2022-11-15T00:43:20;95435.53;;;0.86;100.00
62103;BME280;48077;48.104;11.702;2022-11-15T00:45:44;95441.13;;;0.83;100.00
62103;BME280;48077;48.104;11.702;2022-11-15T00:48:07;95439.50;;;0.82;100.00
62103;BME280;48077;48.104;11.702;2022-11-15T00:50:30;95416.72;;;0.74;100.00
62103;BME280;48077;48.104;11.702;2022-11-15T00:52:54;95446.09;;;0.78;100.00
62103;BME280;48077;48.104;11.702;2022-11-15T00:55:18;95430.53;;;0.68;100.00
62103;BME280;48077;48.104;11.702;2022-11-15T00:57:41;95438.88;;;0.72;100.00
62103;BME280;48077;48.104;11.702;2022-11-15T01:00:06;95421.91;;;0.59;100.00
62103;BME280;48077;48.104;11.702;2022-11-15T01:02:29;95431.53;;;0.67;100.00
62103;BME280;48077;48.104;11.702;2022-11-15T01:04:52;95431.81;;;0.72;100.00
62103;BME280;48077;48.104;11.702;2022-11-15T01:07:16;95428.41;;;0.72;100.00
62103;BME280;48077;48.104;11.702;2022-11-15T01:09:39;95430.22;;;0.71;100.00
62103;BME280;48077;48.104;11.702;2022-11-15T01:12:03;95416.13;;;0.64;100.00
62103;BME280;48077;48.104;11.702;2022-11-15T01:14:26;95424.13;;;0.71;100.00
62103;BME280;48077;48.104;11.702;2022-11-15T01:16:50;95416.25;;;0.71;100.00
62103;BME280;48077;48.104;11.702;2022-11-15T01:19:13;95410.19;;;0.70;100.00
62103;BME280;48077;48.104;11.702;2022-11-15T01:21:36;95418.06;;;0.70;100.00
62103;BME280;48077;48.104;11.702;2022-11-15T01:24:00;95404.75;;;0.72;100.00
62103;BME280;48077;48.104;11.702;2022-11-15T01:26:24;95399.69;;;0.70;100.00
62103;BME280;48077;48.104;11.702;2022-11-15T01:28:47;95395.25;;;0.71;100.00
62103;BME280;48077;48.104;11.702;2022-11-15T01:31:14;95381.84;;;0.66;100.00
62103;BME280;48077;48.104;11.702;2022-11-15T01:33:38;95395.97;;;0.65;100.00
62103;BME280;48077;48.104;11.702;2022-11-15T01:36:06;95375.34;;;0.53;100.00
62103;BME280;48077;48.104;11.702;2022-11-15T01:38:29;95378.28;;;0.58;100.00
62103;BME280;48077;48.104;11.702;2022-11-15T01:40:52;95376.50;;;0.51;100.00
62103;BME280;48077;48.104;11.702;2022-11-15T01:43:23;95367.69;;;0.44;100.00
62103;BME280;48077;48.104;11.702;2022-11-15T01:45:51;95366.22;;;0.41;100.00
62103;BME280;48077;48.104;11.702;2022-11-15T01:48:17;95363.84;;;0.31;100.00
62103;BME280;48077;48.104;11.702;2022-11-15T01:50:40;95358.59;;;0.31;100.00
62103;BME280;48077;48.104;11.702;2022-11-15T01:53:03;95339.47;;;0.14;100.00
62103;BME280;48077;48.104;11.702;2022-11-15T01:55:27;95357.13;;;0.20;100.00
62103;BME280;48077;48.104;11.702;2022-11-15T01:57:54;95357.63;;;0.24;100.00
62103;BME280;48077;48.104;11.702;2022-11-15T02:00:19;95352.72;;;0.21;100.00
62103;BME280;48077;48.104;11.702;2022-11-15T02:02:43;95350.13;;;0.21;100.00
62103;BME280;48077;48.104;11.702;2022-11-15T02:05:06;95353.22;;;0.16;100.00
62103;BME280;48077;48.104;11.702;2022-11-15T02:07:31;95356.69;;;0.17;100.00
62103;BME280;48077;48.104;11.702;2022-11-15T02:09:58;95347.81;;;0.18;100.00
62103;BME280;48077;48.104;11.702;2022-11-15T02:12:24;95348.81;;;0.17;100.00
62103;BME280;48077;48.104;11.702;2022-11-15T02:14:51;95343.09;;;0.13;100.00
62103;BME280;48077;48.104;11.702;2022-11-15T02:17:33;95347.16;;;0.16;100.00
62103;BME280;48077;48.104;11.702;2022-11-15T02:23:31;95345.19;;;0.18;100.00
62103;BME280;48077;48.104;11.702;2022-11-15T02:29:07;95326.72;;;0.11;100.00
62103;BME280;48077;48.104;11.702;2022-11-15T02:32:02;95322.75;;;0.15;100.00
62103;BME280;48077;48.104;11.702;2022-11-15T02:42:30;95300.31;;;0.13;100.00
62103;BME280;48077;48.104;11.702;2022-11-15T02:45:25;95303.06;;;0.19;100.00
62103;BME280;48077;48.104;11.702;2022-11-15T02:47:52;95295.19;;;0.19;100.00
62103;BME280;48077;48.104;11.702;2022-11-15T02:50:21;95282.94;;;0.12;100.00
62103;BME280;48077;48.104;11.702;2022-11-15T02:52:46;95282.00;;;0.05;100.00
62103;BME280;48077;48.104;11.702;2022-11-15T02:55:33;95294.59;;;0.09;100.00
62103;BME280;48077;48.104;11.702;2022-11-15T02:58:11;95299.34;;;0.06;100.00
62103;BME280;48077;48.104;11.702;2022-11-15T03:01:13;95313.63;;;0.03;100.00
62103;BME280;48077;48.104;11.702;2022-11-15T03:09:10;95308.88;;;0.07;100.00
62103;BME280;48077;48.104;11.702;2022-11-15T03:11:41;95296.25;;;0.02;100.00
62103;BME280;48077;48.104;11.702;2022-11-15T03:14:34;95297.25;;;0.01;100.00
62103;BME280;48077;48.104;11.702;2022-11-15T03:19:54;95302.47;;;0.09;100.00
62103;BME280;48077;48.104;11.702;2022-11-15T03:22:21;95300.81;;;0.08;100.00
62103;BME280;48077;48.104;11.702;2022-11-15T03:24:50;95301.16;;;0.05;100.00
62103;BME280;48077;48.104;11.702;2022-11-15T03:27:15;95302.63;;;0.08;100.00
62103;BME280;48077;48.104;11.702;2022-11-15T03:29:45;95301.50;;;0.02;100.00
62103;BME280;48077;48.104;11.702;2022-11-15T03:32:13;95311.66;;;0.05;100.00
62103;BME280;48077;48.104;11.702;2022-11-15T03:34:39;95305.59;;;0.05;100.00
62103;BME280;48077;48.104;11.702;2022-11-15T03:37:05;95287.66;;;-0.15;100.00
62103;BME280;48077;48.104;11.702;2022-11-15T03:39:29;95301.56;;;-0.06;100.00
62103;BME280;48077;48.104;11.702;2022-11-15T03:42:21;95302.53;;;-0.07;100.00
62103;BME280;48077;48.104;11.702;2022-11-15T03:49:50;95280.47;;;-0.21;100.00
62103;BME280;48077;48.104;11.702;2022-11-15T03:52:18;95290.31;;;-0.23;100.00
62103;BME280;48077;48.104;11.702;2022-11-15T03:54:50;95275.91;;;-0.27;100.00
62103;BME280;48077;48.104;11.702;2022-11-15T03:57:14;95271.38;;;-0.33;100.00
62103;BME280;48077;48.104;11.702;2022-11-15T03:59:37;95285.75;;;-0.29;100.00
62103;BME280;48077;48.104;11.702;2022-11-15T04:02:01;95285.63;;;-0.36;100.00
62103;BME280;48077;48.104;11.702;2022-11-15T04:04:24;95276.16;;;-0.45;100.00
62103;BME280;48077;48.104;11.702;2022-11-15T04:06:47;95278.31;;;-0.49;100.00
62103;BME280;48077;48.104;11.702;2022-11-15T04:09:11;95269.47;;;-0.48;100.00
62103;BME280;48077;48.104;11.702;2022-11-15T04:11:34;95266.22;;;-0.58;100.00
62103;BME280;48077;48.104;11.702;2022-11-15T04:13:57;95266.88;;;-0.56;100.00
62103;BME280;48077;48.104;11.702;2022-11-15T04:16:21;95271.13;;;-0.55;100.00
62103;BME280;48077;48.104;11.702;2022-11-15T04:18:44;95257.72;;;-0.60;100.00
62103;BME280;48077;48.104;11.702;2022-11-15T04:21:08;95262.75;;;-0.58;100.00
62103;BME280;48077;48.104;11.702;2022-11-15T04:23:50;95261.00;;;-0.58;100.00
62103;BME280;48077;48.104;11.702;2022-11-15T04:26:33;95255.41;;;-0.55;100.00
62103;BME280;48077;48.104;11.702;2022-11-15T04:28:57;95250.00;;;-0.53;100.00
62103;BME280;48077;48.104;11.702;2022-11-15T04:31:39;95245.88;;;-0.48;100.00
62103;BME280;48077;48.104;11.702;2022-11-15T04:34:02;95235.56;;;-0.49;100.00
62103;BME280;48077;48.104;11.702;2022-11-15T04:36:26;95213.97;;;-0.51;100.00
62103;BME280;48077;48.104;11.702;2022-11-15T04:39:08;95221.69;;;-0.58;100.00
62103;BME280;48077;48.104;11.702;2022-11-15T04:41:31;95231.31;;;-0.50;100.00
62103;BME280;48077;48.104;11.702;2022-11-15T04:43:55;95206.13;;;-0.59;100.00
62103;BME280;48077;48.104;11.702;2022-11-15T04:46:18;95219.53;;;-0.54;100.00
62103;BME280;48077;48.104;11.702;2022-11-15T04:48:41;95214.59;;;-0.49;100.00
62103;BME280;48077;48.104;11.702;2022-11-15T04:51:05;95229.03;;;-0.53;100.00
62103;BME280;48077;48.104;11.702;2022-11-15T04:53:28;95224.78;;;-0.63;100.00
62103;BME280;48077;48.104;11.702;2022-11-15T04:55:51;95235.59;;;-0.57;100.00
62103;BME280;48077;48.104;11.702;2022-11-15T04:58:15;95222.53;;;-0.66;100.00
62103;BME280;48077;48.104;11.702;2022-11-15T05:00:38;95232.34;;;-0.59;100.00
62103;BME280;48077;48.104;11.702;2022-11-15T05:03:02;95230.03;;;-0.63;100.00
62103;BME280;48077;48.104;11.702;2022-11-15T05:05:44;95239.34;;;-0.52;100.00
62103;BME280;48077;48.104;11.702;2022-11-15T05:08:07;95235.09;;;-0.53;100.00
62103;BME280;48077;48.104;11.702;2022-11-15T05:10:31;95231.97;;;-0.56;100.00
62103;BME280;48077;48.104;11.702;2022-11-15T05:12:54;95235.75;;;-0.59;100.00
62103;BME280;48077;48.104;11.702;2022-11-15T05:15:17;95231.53;;;-0.60;100.00
62103;BME280;48077;48.104;11.702;2022-11-15T05:17:41;95234.78;;;-0.58;100.00
62103;BME280;48077;48.104;11.702;2022-11-15T05:20:04;95225.44;;;-0.61;100.00
62103;BME280;48077;48.104;11.702;2022-11-15T05:22:28;95226.94;;;-0.58;100.00
62103;BME280;48077;48.104;11.702;2022-11-15T05:24:51;95213.22;;;-0.68;100.00
62103;BME280;48077;48.104;11.702;2022-11-15T05:27:15;95209.78;;;-0.69;100.00
62103;BME280;48077;48.104;11.702;2022-11-15T05:29:38;95216.66;;;-0.68;100.00
62103;BME280;48077;48.104;11.702;2022-11-15T05:32:04;95219.44;;;-0.69;100.00
62103;BME280;48077;48.104;11.702;2022-11-15T05:34:28;95205.56;;;-0.78;100.00
62103;BME280;48077;48.104;11.702;2022-11-15T05:36:52;95207.34;;;-0.78;100.00
62103;BME280;48077;48.104;11.702;2022-11-15T05:39:15;95209.16;;;-0.79;100.00
62103;BME280;48077;48.104;11.702;2022-11-15T05:42:06;95206.34;;;-0.77;100.00
62103;BME280;48077;48.104;11.702;2022-11-15T05:44:33;95197.22;;;-0.82;100.00
62103;BME280;48077;48.104;11.702;2022-11-15T05:46:57;95198.84;;;-0.80;100.00
62103;BME280;48077;48.104;11.702;2022-11-15T05:49:23;95175.81;;;-0.85;100.00
62103;BME280;48077;48.104;11.702;2022-11-15T05:51:48;95191.16;;;-0.82;100.00
62103;BME280;48077;48.104;11.702;2022-11-15T05:54:13;95181.38;;;-0.88;100.00
62103;BME280;48077;48.104;11.702;2022-11-15T05:56:37;95185.13;;;-0.83;100.00
62103;BME280;48077;48.104;11.702;2022-11-15T05:59:01;95184.97;;;-0.81;100.00
62103;BME280;48077;48.104;11.702;2022-11-15T06:01:25;95170.84;;;-0.80;100.00
62103;BME280;48077;48.104;11.702;2022-11-15T06:03:49;95170.84;;;-0.80;100.00
62103;BME280;48077;48.104;11.702;2022-11-15T06:06:13;95178.69;;;-0.72;100.00
62103;BME280;48077;48.104;11.702;2022-11-15T06:08:36;95180.34;;;-0.71;100.00
62103;BME280;48077;48.104;11.702;2022-11-15T06:11:06;95176.06;;;-0.72;100.00
62103;BME280;48077;48.104;11.702;2022-11-15T06:13:30;95196.03;;;-0.71;100.00
62103;BME280;48077;48.104;11.702;2022-11-15T06:15:55;95194.56;;;-0.73;100.00
62103;BME280;48077;48.104;11.702;2022-11-15T06:18:19;95193.75;;;-0.74;100.00
62103;BME280;48077;48.104;11.702;2022-11-15T06:20:43;95192.28;;;-0.76;100.00
62103;BME280;48077;48.104;11.702;2022-11-15T06:23:06;95176.25;;;-0.82;100.00
62103;BME280;48077;48.104;11.702;2022-11-15T06:25:30;95172.97;;;-0.75;100.00
62103;BME280;48077;48.104;11.702;2022-11-15T06:27:55;95172.47;;;-0.71;100.00
62103;BME280;48077;48.104;11.702;2022-11-15T06:30:19;95173.28;;;-0.70;100.00
62103;BME280;48077;48.104;11.702;2022-11-15T06:32:43;95169.34;;;-0.66;100.00
62103;BME280;48077;48.104;11.702;2022-11-15T06:35:07;95174.69;;;-0.59;100.00
62103;BME280;48077;48.104;11.702;2022-11-15T06:37:30;95170.09;;;-0.57;100.00
62103;BME280;48077;48.104;11.702;2022-11-15T06:39:53;95176.81;;;-0.55;100.00
62103;BME280;48077;48.104;11.702;2022-11-15T06:42:17;95179.09;;;-0.52;100.00
62103;BME280;48077;48.104;11.702;2022-11-15T06:44:40;95175.16;;;-0.48;100.00
62103;BME280;48077;48.104;11.702;2022-11-15T06:47:03;95178.22;;;-0.44;100.00
62103;BME280;48077;48.104;11.702;2022-11-15T06:49:27;95184.09;;;-0.42;100.00
62103;BME280;48077;48.104;11.702;2022-11-15T06:51:50;95190.19;;;-0.42;100.00
62103;BME280;48077;48.104;11.702;2022-11-15T06:54:13;95178.56;;;-0.47;100.00
62103;BME280;48077;48.104;11.702;2022-11-15T06:56:37;95182.47;;;-0.43;100.00
62103;BME280;48077;48.104;11.702;2022-11-15T06:59:00;95170.56;;;-0.46;100.00
62103;BME280;48077;48.104;11.702;2022-11-15T07:01:24;95180.47;;;-0.33;100.00
62103;BME280;48077;48.104;11.702;2022-11-15T07:03:47;95166.75;;;-0.43;100.00
62103;BME280;48077;48.104;11.702;2022-11-15T07:06:10;95184.81;;;-0.25;100.00
62103;BME280;48077;48.104;11.702;2022-11-15T07:08:35;95176.63;;;-0.22;100.00
62103;BME280;48077;48.104;11.702;2022-11-15T07:11:00;95180.38;;;-0.16;100.00
62103;BME280;48077;48.104;11.702;2022-11-15T07:13:26;95177.22;;;-0.12;100.00
62103;BME280;48077;48.104;11.702;2022-11-15T07:15:49;95178.13;;;-0.05;100.00
62103;BME280;48077;48.104;11.702;2022-11-15T07:18:13;95174.00;;;0.01;100.00
62103;BME280;48077;48.104;11.702;2022-11-15T07:20:36;95173.47;;;0.06;100.00
62103;BME280;48077;48.104;11.702;2022-11-15T07:23:04;95175.94;;;0.07;100.00
62103;BME280;48077;48.104;11.702;2022-11-15T07:25:28;95181.66;;;0.11;100.00
62103;BME280;48077;48.104;11.702;2022-11-15T07:27:58;95172.44;;;0.15;100.00
62103;BME280;48077;48.104;11.702;2022-11-15T07:30:25;95166.84;;;0.18;100.00
62103;BME280;48077;48.104;11.702;2022-11-15T07:32:53;95174.47;;;0.28;100.00
62103;BME280;48077;48.104;11.702;2022-11-15T07:35:17;95162.53;;;0.25;100.00
62103;BME280;48077;48.104;11.702;2022-11-15T07:37:40;95177.66;;;0.38;100.00
62103;BME280;48077;48.104;11.702;2022-11-15T07:40:04;95174.13;;;0.46;100.00
62103;BME280;48077;48.104;11.702;2022-11-15T07:42:27;95165.63;;;0.44;100.00
62103;BME280;48077;48.104;11.702;2022-11-15T07:45:09;95181.88;;;0.62;100.00
62103;BME280;48077;48.104;11.702;2022-11-15T07:47:32;95183.25;;;0.73;100.00
62103;BME280;48077;48.104;11.702;2022-11-15T07:49:56;95168.31;;;0.73;100.00
62103;BME280;48077;48.104;11.702;2022-11-15T07:52:19;95177.38;;;0.86;100.00
62103;BME280;48077;48.104;11.702;2022-11-15T07:54:43;95182.91;;;0.91;100.00
62103;BME280;48077;48.104;11.702;2022-11-15T07:57:06;95170.59;;;0.91;100.00
62103;BME280;48077;48.104;11.702;2022-11-15T07:59:32;95188.34;;;1.04;100.00
62103;BME280;48077;48.104;11.702;2022-11-15T08:01:55;95171.78;;;1.04;100.00
62103;BME280;48077;48.104;11.702;2022-11-15T08:04:19;95172.13;;;1.15;100.00
62103;BME280;48077;48.104;11.702;2022-11-15T08:06:42;95171.03;;;1.25;100.00
62103;BME280;48077;48.104;11.702;2022-11-15T08:09:05;95166.78;;;1.38;100.00
62103;BME280;48077;48.104;11.702;2022-11-15T08:11:29;95160.84;;;1.51;100.00
62103;BME280;48077;48.104;11.702;2022-11-15T08:13:52;95144.97;;;1.59;100.00
62103;BME280;48077;48.104;11.702;2022-11-15T08:16:16;95141.03;;;1.70;100.00
62103;BME280;48077;48.104;11.702;2022-11-15T08:18:39;95141.56;;;1.80;100.00
62103;BME280;48077;48.104;11.702;2022-11-15T08:21:03;95150.13;;;1.89;100.00
62103;BME280;48077;48.104;11.702;2022-11-15T08:23:27;95152.97;;;2.09;100.00
62103;BME280;48077;48.104;11.702;2022-11-15T08:25:50;95156.34;;;2.25;100.00
62103;BME280;48077;48.104;11.702;2022-11-15T08:28:16;95154.66;;;2.38;100.00
62103;BME280;48077;48.104;11.702;2022-11-15T08:30:42;95141.78;;;2.50;100.00
62103;BME280;48077;48.104;11.702;2022-11-15T08:33:05;95118.50;;;2.54;100.00
62103;BME280;48077;48.104;11.702;2022-11-15T08:35:29;95131.81;;;2.74;100.00
62103;BME280;48077;48.104;11.702;2022-11-15T08:37:53;95106.31;;;2.81;100.00
62103;BME280;48077;48.104;11.702;2022-11-15T08:40:16;95114.94;;;2.96;100.00
62103;BME280;48077;48.104;11.702;2022-11-15T08:42:41;95098.81;;;3.13;100.00
62103;BME280;48077;48.104;11.702;2022-11-15T08:45:06;95090.97;;;3.33;100.00
62103;BME280;48077;48.104;11.702;2022-11-15T08:47:29;95081.91;;;3.49;100.00
62103;BME280;48077;48.104;11.702;2022-11-15T08:49:53;95076.47;;;3.77;100.00
62103;BME280;48077;48.104;11.702;2022-11-15T08:52:16;95077.75;;;3.94;100.00
62103;BME280;48077;48.104;11.702;2022-11-15T08:54:40;95088.53;;;4.13;100.00
62103;BME280;48077;48.104;11.702;2022-11-15T08:57:03;95090.97;;;4.28;100.00
62103;BME280;48077;48.104;11.702;2022-11-15T08:59:26;95085.06;;;4.39;100.00
62103;BME280;48077;48.104;11.702;2022-11-15T09:01:50;95083.41;;;4.58;99.34
62103;BME280;48077;48.104;11.702;2022-11-15T09:04:13;95079.53;;;4.74;98.75
62103;BME280;48077;48.104;11.702;2022-11-15T09:06:36;95079.91;;;4.91;97.26
62103;BME280;48077;48.104;11.702;2022-11-15T09:09:00;95085.56;;;5.07;96.59
62103;BME280;48077;48.104;11.702;2022-11-15T09:11:24;95089.97;;;5.20;95.08
62103;BME280;48077;48.104;11.702;2022-11-15T09:13:47;95098.50;;;5.36;93.67
62103;BME280;48077;48.104;11.702;2022-11-15T09:16:11;95103.72;;;5.49;93.39
62103;BME280;48077;48.104;11.702;2022-11-15T09:18:35;95081.91;;;5.54;91.84
62103;BME280;48077;48.104;11.702;2022-11-15T09:20:59;95082.47;;;5.62;91.80
62103;BME280;48077;48.104;11.702;2022-11-15T09:23:24;95092.34;;;5.80;91.00
62103;BME280;48077;48.104;11.702;2022-11-15T09:25:47;95086.16;;;5.93;90.06
62103;BME280;48077;48.104;11.702;2022-11-15T09:28:11;95091.84;;;6.03;89.59
62103;BME280;48077;48.104;11.702;2022-11-15T09:30:34;95086.69;;;6.15;88.16
62103;BME280;48077;48.104;11.702;2022-11-15T09:32:57;95082.72;;;6.24;86.98
62103;BME280;48077;48.104;11.702;2022-11-15T09:35:21;95084.19;;;6.45;86.56
62103;BME280;48077;48.104;11.702;2022-11-15T09:37:44;95080.59;;;6.58;85.68
62103;BME280;48077;48.104;11.702;2022-11-15T09:40:13;95080.28;;;6.73;85.40
62103;BME280;48077;48.104;11.702;2022-11-15T09:46:13;95062.34;;;7.12;84.72
62103;BME280;48077;48.104;11.702;2022-11-15T09:48:51;95053.56;;;7.30;84.17
62103;BME280;48077;48.104;11.702;2022-11-15T09:56:44;95039.19;;;7.98;80.09
62103;BME280;48077;48.104;11.702;2022-11-15T10:04:20;95019.41;;;8.71;74.50
62103;BME280;48077;48.104;11.702;2022-11-15T10:09:28;95003.25;;;9.14;72.60
62103;BME280;48077;48.104;11.702;2022-11-15T10:11:55;95004.38;;;9.29;70.93
62103;BME280;48077;48.104;11.702;2022-11-15T10:14:21;95003.75;;;9.39;69.25
62103;BME280;48077;48.104;11.702;2022-11-15T10:24:42;95002.94;;;9.96;66.59
62103;BME280;48077;48.104;11.702;2022-11-15T10:27:14;94990.38;;;10.08;65.67
62103;BME280;48077;48.104;11.702;2022-11-15T10:29:46;94990.38;;;10.25;65.56
62103;BME280;48077;48.104;11.702;2022-11-15T10:32:15;94981.81;;;10.40;63.94
62103;BME280;48077;48.104;11.702;2022-11-15T10:34:38;94977.03;;;10.59;63.98
62103;BME280;48077;48.104;11.702;2022-11-15T10:37:02;94970.84;;;10.76;62.48
62103;BME280;48077;48.104;11.702;2022-11-15T10:39:25;94965.72;;;10.91;62.20
62103;BME280;48077;48.104;11.702;2022-11-15T10:41:49;94969.06;;;11.03;60.55
62103;BME280;48077;48.104;11.702;2022-11-15T10:44:31;94960.63;;;11.11;60.50
62103;BME280;48077;48.104;11.702;2022-11-15T10:49:26;94959.13;;;11.43;59.93
62103;BME280;48077;48.104;11.702;2022-11-15T10:51:55;94955.00;;;11.57;59.41
62103;BME280;48077;48.104;11.702;2022-11-15T10:54:24;94928.06;;;11.64;58.91
62103;BME280;48077;48.104;11.702;2022-11-15T10:56:49;94938.41;;;11.82;57.40
62103;BME280;48077;48.104;11.702;2022-11-15T10:59:25;94936.84;;;11.86;57.53
62103;BME280;48077;48.104;11.702;2022-11-15T11:01:49;94937.81;;;12.02;57.26
62103;BME280;48077;48.104;11.702;2022-11-15T11:04:13;94937.13;;;12.17;57.11
62103;BME280;48077;48.104;11.702;2022-11-15T11:06:56;94926.03;;;12.35;57.11
62103;BME280;48077;48.104;11.702;2022-11-15T11:09:33;94926.38;;;12.49;55.79
62103;BME280;48077;48.104;11.702;2022-11-15T11:11:56;94924.50;;;12.50;55.93
62103;BME280;48077;48.104;11.702;2022-11-15T11:14:29;94907.69;;;12.54;56.05
62103;BME280;48077;48.104;11.702;2022-11-15T11:24:51;94902.84;;;13.14;54.61
62103;BME280;48077;48.104;11.702;2022-11-15T11:30:16;94893.00;;;13.25;54.08
62103;BME280;48077;48.104;11.702;2022-11-15T11:32:59;94897.31;;;13.36;53.42
62103;BME280;48077;48.104;11.702;2022-11-15T11:38:40;94889.03;;;13.43;52.21
62103;BME280;48077;48.104;11.702;2022-11-15T11:46:58;94886.81;;;13.25;52.22
62103;BME280;48077;48.104;11.702;2022-11-15T11:49:59;94873.41;;;13.14;52.45
62103;BME280;48077;48.104;11.702;2022-11-15T11:52:43;94873.06;;;12.90;52.01
62103;BME280;48077;48.104;11.702;2022-11-15T11:55:30;94868.31;;;12.50;53.53
62103;BME280;48077;48.104;11.702;2022-11-15T11:58:04;94860.41;;;12.18;54.22
62103;BME280;48077;48.104;11.702;2022-11-15T12:00:37;94858.69;;;12.01;54.33
62103;BME280;48077;48.104;11.702;2022-11-15T12:03:18;94840.09;;;11.84;54.01
62103;BME280;48077;48.104;11.702;2022-11-15T12:05:49;94843.00;;;11.83;53.12
62103;BME280;48077;48.104;11.702;2022-11-15T12:10:53;94844.06;;;11.44;55.03
62103;BME280;48077;48.104;11.702;2022-11-15T12:13:20;94847.41;;;11.29;56.12
62103;BME280;48077;48.104;11.702;2022-11-15T12:16:00;94841.41;;;11.17;56.75
62103;BME280;48077;48.104;11.702;2022-11-15T12:18:26;94833.78;;;11.04;57.64
62103;BME280;48077;48.104;11.702;2022-11-15T12:20:58;94841.50;;;11.00;57.97
62103;BME280;48077;48.104;11.702;2022-11-15T12:23:29;94827.53;;;10.93;58.83
62103;BME280;48077;48.104;11.702;2022-11-15T12:26:07;94825.06;;;10.86;58.68
62103;BME280;48077;48.104;11.702;2022-11-15T12:28:43;94833.81;;;10.82;59.34
62103;BME280;48077;48.104;11.702;2022-11-15T12:31:16;94828.97;;;10.79;59.70
62103;BME280;48077;48.104;11.702;2022-11-15T12:33:43;94819.84;;;10.74;59.50
62103;BME280;48077;48.104;11.702;2022-11-15T12:39:06;94817.91;;;10.65;60.27
62103;BME280;48077;48.104;11.702;2022-11-15T12:41:32;94815.16;;;10.60;60.49
62103;BME280;48077;48.104;11.702;2022-11-15T12:43:56;94811.03;;;10.47;60.74
62103;BME280;48077;48.104;11.702;2022-11-15T12:51:20;94816.34;;;10.47;61.46
62103;BME280;48077;48.104;11.702;2022-11-15T12:53:44;94806.44;;;10.42;61.18
62103;BME280;48077;48.104;11.702;2022-11-15T13:12:11;94787.63;;;10.54;62.20
62103;BME280;48077;48.104;11.702;2022-11-15T13:14:57;94791.91;;;10.55;62.35
62103;BME280;48077;48.104;11.702;2022-11-15T13:19:53;94797.22;;;10.50;62.22
62103;BME280;48077;48.104;11.702;2022-11-15T13:22:20;94797.72;;;10.52;62.47
62103;BME280;48077;48.104;11.702;2022-11-15T13:25:02;94798.84;;;10.56;61.94
62103;BME280;48077;48.104;11.702;2022-11-15T13:27:26;94789.72;;;10.52;61.57
62103;BME280;48077;48.104;11.702;2022-11-15T13:29:50;94779.25;;;10.45;61.84
62103;BME280;48077;48.104;11.702;2022-11-15T13:32:15;94790.19;;;10.44;62.07
62103;BME280;48077;48.104;11.702;2022-11-15T13:34:43;94792.13;;;10.48;62.95
62103;BME280;48077;48.104;11.702;2022-11-15T13:37:28;94792.34;;;10.47;62.65
62103;BME280;48077;48.104;11.702;2022-11-15T13:39:53;94781.13;;;10.45;63.54
62103;BME280;48077;48.104;11.702;2022-11-15T13:42:18;94777.44;;;10.46;63.04
62103;BME280;48077;48.104;11.702;2022-11-15T13:44:58;94771.53;;;10.44;63.72
62103;BME280;48077;48.104;11.702;2022-11-15T13:47:25;94768.59;;;10.45;63.83
62103;BME280;48077;48.104;11.702;2022-11-15T13:49:53;94777.44;;;10.46;64.09
62103;BME280;48077;48.104;11.702;2022-11-15T13:52:16;94778.47;;;10.45;64.13
62103;BME280;48077;48.104;11.702;2022-11-15T13:54:59;94772.53;;;10.38;64.82
62103;BME280;48077;48.104;11.702;2022-11-15T13:57:30;94771.16;;;10.35;64.69
62103;BME280;48077;48.104;11.702;2022-11-15T14:00:02;94768.44;;;10.30;65.53
62103;BME280;48077;48.104;11.702;2022-11-15T14:02:34;94762.31;;;10.29;65.92
62103;BME280;48077;48.104;11.702;2022-11-15T14:05:03;94764.31;;;10.22;65.77
62103;BME280;48077;48.104;11.702;2022-11-15T14:07:29;94751.16;;;10.16;66.01
62103;BME280;48077;48.104;11.702;2022-11-15T14:09:53;94748.13;;;10.07;66.63
62103;BME280;48077;48.104;11.702;2022-11-15T14:12:32;94765.16;;;10.06;67.30
62103;BME280;48077;48.104;11.702;2022-11-15T14:14:55;94767.22;;;9.99;67.69
62103;BME280;48077;48.104;11.702;2022-11-15T14:17:39;94767.63;;;9.90;68.23
62103;BME280;48077;48.104;11.702;2022-11-15T14:23:00;94762.09;;;9.75;68.63
62103;BME280;48077;48.104;11.702;2022-11-15T14:25:25;94771.94;;;9.75;68.78
62103;BME280;48077;48.104;11.702;2022-11-15T14:28:13;94775.34;;;9.70;69.69
62103;BME280;48077;48.104;11.702;2022-11-15T14:30:39;94779.16;;;9.57;70.31
62103;BME280;48077;48.104;11.702;2022-11-15T14:35:40;94787.13;;;9.40;71.40